createdAt,value
2019-05-15T00:01:28.523Z,8.66
2019-05-15T00:03:58.487Z,8.49
2019-05-15T00:06:28.511Z,8.47
2019-05-15T00:08:58.814Z,8.34
2019-05-15T00:11:28.774Z,8.21
2019-05-15T00:13:58.937Z,8.27
2019-05-15T00:16:29.067Z,8.23
2019-05-15T00:18:59.074Z,8.21
2019-05-15T00:21:28.782Z,8.12
2019-05-15T00:23:58.682Z,8.13
2019-05-15T00:26:27.289Z,8.15
2019-05-15T00:29:09.501Z,8.15
2019-05-15T00:31:28.994Z,8.12
2019-05-15T00:33:58.938Z,8.12
2019-05-15T00:36:28.629Z,8.19
2019-05-15T00:38:59.081Z,8.05
2019-05-15T00:41:28.073Z,7.95
2019-05-15T00:43:58.492Z,8.16
2019-05-15T00:46:29.045Z,8.12
2019-05-15T00:48:59.207Z,8.16
2019-05-15T00:51:28.552Z,7.96
2019-05-15T00:53:58.910Z,8.08
2019-05-15T00:56:28.407Z,7.92
2019-05-15T00:58:58.790Z,8.06
2019-05-15T01:01:28.691Z,7.86
2019-05-15T01:03:58.601Z,7.86
2019-05-15T01:06:28.429Z,7.86
2019-05-15T01:08:58.858Z,7.79
2019-05-15T01:11:28.496Z,7.80
2019-05-15T01:13:58.531Z,7.70
2019-05-15T01:16:28.143Z,7.73
2019-05-15T01:18:58.613Z,7.65
2019-05-15T01:21:27.878Z,7.56
2019-05-15T01:23:58.820Z,7.51
2019-05-15T01:26:28.189Z,7.59
2019-05-15T01:28:58.401Z,7.49
2019-05-15T01:31:28.557Z,7.41
2019-05-15T01:33:58.368Z,7.35
2019-05-15T01:36:28.766Z,7.29
2019-05-15T01:38:58.479Z,7.20
2019-05-15T01:41:28.189Z,7.27
2019-05-15T01:43:58.094Z,7.28
2019-05-15T01:46:28.602Z,7.24
2019-05-15T01:48:58.561Z,7.11
2019-05-15T01:51:28.614Z,7.00
2019-05-15T01:53:58.423Z,7.03
2019-05-15T01:56:29.338Z,7.06
2019-05-15T01:58:58.020Z,7.08
2019-05-15T02:01:28.309Z,6.97
2019-05-15T02:03:58.949Z,6.87
2019-05-15T02:06:28.539Z,6.96
2019-05-15T02:08:58.701Z,6.92
2019-05-15T02:11:28.872Z,6.90
2019-05-15T02:13:58.669Z,6.80
2019-05-15T02:16:28.636Z,6.81
2019-05-15T02:18:58.189Z,6.78
2019-05-15T02:21:28.904Z,6.79
2019-05-15T02:23:58.752Z,6.74
2019-05-15T02:26:28.251Z,6.91
2019-05-15T02:28:56.885Z,6.75
2019-05-15T02:31:25.403Z,6.97
2019-05-15T02:33:53.977Z,6.82
2019-05-15T02:36:22.539Z,6.78
2019-05-15T02:38:51.065Z,6.61
2019-05-15T02:41:19.761Z,6.74
2019-05-15T02:43:50.069Z,6.56
2019-05-15T02:46:19.564Z,6.47
2019-05-15T02:48:49.065Z,6.61
2019-05-15T02:51:19.281Z,6.57
2019-05-15T02:53:50.121Z,6.58
2019-05-15T02:56:20.335Z,6.47
2019-05-15T02:58:49.409Z,6.43
2019-05-15T03:01:18.976Z,6.35
2019-05-15T03:03:49.738Z,6.46
2019-05-15T03:06:19.401Z,6.37
2019-05-15T03:08:49.491Z,6.38
2019-05-15T03:11:19.121Z,6.14
2019-05-15T03:13:50.386Z,6.14
2019-05-15T03:16:19.345Z,6.19
2019-05-15T03:18:50.518Z,6.09
2019-05-15T03:21:19.181Z,6.13
2019-05-15T03:23:50.673Z,6.07
2019-05-15T03:26:19.831Z,6.00
2019-05-15T03:28:49.611Z,5.91
2019-05-15T03:31:41.519Z,6.04
2019-05-15T03:33:54.172Z,5.93
2019-05-15T03:36:23.323Z,5.88
2019-05-15T03:38:50.317Z,5.79
2019-05-15T03:41:19.640Z,5.77
2019-05-15T03:43:49.712Z,5.79
2019-05-15T03:46:19.962Z,5.79
2019-05-15T03:48:48.885Z,5.83
2019-05-15T03:51:19.913Z,5.78
2019-05-15T03:53:49.673Z,5.79
2019-05-15T03:56:19.249Z,5.78
2019-05-15T03:58:49.272Z,5.69
2019-05-15T04:01:30.043Z,5.66
2019-05-15T04:03:49.722Z,5.71
2019-05-15T04:06:19.384Z,5.72
2019-05-15T04:08:49.703Z,5.66
2019-05-15T04:11:20.272Z,5.65
2019-05-15T04:13:49.943Z,5.64
2019-05-15T04:16:19.246Z,5.58
2019-05-15T04:18:49.089Z,5.60
2019-05-15T04:21:20.061Z,5.60
2019-05-15T04:23:50.313Z,5.59
2019-05-15T04:26:19.888Z,5.72
2019-05-15T04:28:50.841Z,5.69
2019-05-15T04:31:19.654Z,5.70
2019-05-15T04:33:49.295Z,5.72
2019-05-15T04:36:19.157Z,5.71
2019-05-15T04:38:49.772Z,5.89
2019-05-15T04:41:19.793Z,6.05
2019-05-15T04:43:49.578Z,6.09
2019-05-15T04:46:19.745Z,6.11
2019-05-15T04:48:50.229Z,6.17
2019-05-15T04:51:19.268Z,6.19
2019-05-15T04:53:50.216Z,6.20
2019-05-15T04:56:19.273Z,6.12
2019-05-15T04:58:50.622Z,6.21
2019-05-15T05:01:19.957Z,6.34
2019-05-15T05:03:49.749Z,6.51
2019-05-15T05:06:19.206Z,6.37
2019-05-15T05:08:49.050Z,6.44
2019-05-15T05:11:19.401Z,6.54
2019-05-15T05:13:48.639Z,6.53
2019-05-15T05:16:19.068Z,6.49
2019-05-15T05:18:48.973Z,6.72
2019-05-15T05:21:18.449Z,6.92
2019-05-15T05:23:48.391Z,6.93
2019-05-15T05:26:18.634Z,6.84
2019-05-15T05:28:48.778Z,6.88
2019-05-15T05:31:19.110Z,6.97
2019-05-15T05:33:48.680Z,7.08
2019-05-15T05:36:18.499Z,7.15
2019-05-15T05:38:49.395Z,7.12
2019-05-15T05:41:19.008Z,7.15
2019-05-15T05:43:48.726Z,7.32
2019-05-15T05:46:18.448Z,7.14
2019-05-15T05:48:48.944Z,7.37
2019-05-15T05:51:19.104Z,7.35
2019-05-15T05:53:48.117Z,7.60
2019-05-15T05:56:18.136Z,7.67
2019-05-15T05:58:49.163Z,7.61
2019-05-15T06:01:18.759Z,7.83
2019-05-15T06:03:49.114Z,7.70
2019-05-15T06:06:18.654Z,7.79
2019-05-15T06:08:48.066Z,7.93
2019-05-15T06:11:18.380Z,8.11
2019-05-15T06:13:52.150Z,8.14
2019-05-15T06:16:18.995Z,8.32
2019-05-15T06:18:49.157Z,8.48
2019-05-15T06:21:18.497Z,8.69
2019-05-15T06:23:54.733Z,8.77
2019-05-15T06:26:19.629Z,8.96
2019-05-15T06:28:49.156Z,8.99
2019-05-15T06:31:19.000Z,9.12
2019-05-15T06:33:49.109Z,9.15
2019-05-15T06:36:18.199Z,9.09
2019-05-15T06:38:48.365Z,9.41
2019-05-15T06:41:18.127Z,9.53
2019-05-15T06:43:48.398Z,9.43
2019-05-15T06:46:18.724Z,9.56
2019-05-15T06:48:48.617Z,9.84
2019-05-15T06:51:18.212Z,9.79
2019-05-15T06:53:49.194Z,9.86
2019-05-15T06:56:18.747Z,10.06
2019-05-15T06:58:48.790Z,10.32
2019-05-15T07:01:18.856Z,10.36
2019-05-15T07:03:48.457Z,10.40
2019-05-15T07:06:18.127Z,10.31
2019-05-15T07:08:49.656Z,10.46
2019-05-15T07:11:19.073Z,10.52
2019-05-15T07:13:48.658Z,10.38
2019-05-15T07:16:18.207Z,10.89
2019-05-15T07:18:48.496Z,10.73
2019-05-15T07:21:20.354Z,10.82
2019-05-15T07:23:49.615Z,11.05
2019-05-15T07:26:18.548Z,11.30
2019-05-15T07:28:48.640Z,11.68
2019-05-15T07:31:18.054Z,11.40
2019-05-15T07:33:48.826Z,11.39
2019-05-15T07:36:19.299Z,11.70
2019-05-15T07:38:48.489Z,11.44
2019-05-15T07:41:18.484Z,11.60
2019-05-15T07:43:49.424Z,12.04
2019-05-15T07:46:18.477Z,12.05
2019-05-15T07:48:49.101Z,12.60
2019-05-15T07:51:18.100Z,12.65
2019-05-15T07:53:49.102Z,13.08
2019-05-15T07:56:18.183Z,13.11
2019-05-15T07:58:52.435Z,13.28
2019-05-15T08:01:18.650Z,15.04
2019-05-15T08:03:59.199Z,15.19
2019-05-15T08:06:18.166Z,15.16
2019-05-15T08:08:48.588Z,14.86
2019-05-15T08:11:21.906Z,13.86
2019-05-15T08:13:48.671Z,14.05
2019-05-15T08:16:18.094Z,14.95
2019-05-15T08:18:48.408Z,14.28
2019-05-15T08:21:18.578Z,15.47
2019-05-15T08:23:48.503Z,15.01
2019-05-15T08:26:17.906Z,14.55
2019-05-15T08:28:48.769Z,15.99
2019-05-15T08:31:18.391Z,15.34
2019-05-15T08:33:48.185Z,15.73
2019-05-15T08:36:18.387Z,15.09
2019-05-15T08:38:48.645Z,15.60
2019-05-15T08:41:18.534Z,16.11
2019-05-15T08:43:48.726Z,16.42
2019-05-15T08:46:18.661Z,16.03
2019-05-15T08:48:49.158Z,16.42
2019-05-15T08:51:19.345Z,16.31
2019-05-15T08:53:48.798Z,17.32
2019-05-15T08:56:19.446Z,15.98
2019-05-15T08:58:48.686Z,16.48
2019-05-15T09:01:18.162Z,17.99
2019-05-15T09:03:48.921Z,17.54
2019-05-15T09:06:20.622Z,16.49
2019-05-15T09:08:49.194Z,16.20
2019-05-15T09:11:19.192Z,16.20
2019-05-15T09:13:53.848Z,16.12
2019-05-15T09:16:19.466Z,15.79
2019-05-15T09:18:48.699Z,17.11
2019-05-15T09:21:19.232Z,17.18
2019-05-15T09:23:49.784Z,16.93
2019-05-15T09:26:19.585Z,16.64
2019-05-15T09:28:49.405Z,16.93
2019-05-15T09:31:19.306Z,15.64
2019-05-15T09:33:49.290Z,17.00
2019-05-15T09:36:20.250Z,16.96
2019-05-15T09:38:49.237Z,16.69
2019-05-15T09:41:18.088Z,17.06
2019-05-15T09:43:48.499Z,17.70
2019-05-15T09:46:18.651Z,18.25
2019-05-15T09:48:51.624Z,16.74
2019-05-15T09:51:18.543Z,18.39
2019-05-15T09:53:48.401Z,17.58
2019-05-15T09:56:18.694Z,16.83
2019-05-15T09:58:48.835Z,18.92
2019-05-15T10:01:19.550Z,19.88
2019-05-15T10:03:48.666Z,18.70
2019-05-15T10:06:20.071Z,18.70
2019-05-15T10:08:48.989Z,16.45
2019-05-15T10:11:19.730Z,18.85
2019-05-15T10:13:48.465Z,19.56
2019-05-15T10:16:19.511Z,18.92
2019-05-15T10:18:50.817Z,18.93
2019-05-15T10:21:18.860Z,18.77
2019-05-15T10:23:49.073Z,19.35
2019-05-15T10:26:19.293Z,18.70
2019-05-15T10:28:49.356Z,19.16
2019-05-15T10:31:19.536Z,18.72
2019-05-15T10:33:49.269Z,18.08
2019-05-15T10:36:19.070Z,17.48
2019-05-15T10:38:48.798Z,20.02
2019-05-15T10:41:18.740Z,19.50
2019-05-15T10:43:55.868Z,19.97
2019-05-15T10:46:19.103Z,19.76
2019-05-15T10:48:49.304Z,19.72
2019-05-15T10:51:19.574Z,19.80
2019-05-15T10:53:48.950Z,19.80
2019-05-15T10:56:18.609Z,20.27
2019-05-15T10:58:50.093Z,20.17
2019-05-15T11:01:19.196Z,18.96
2019-05-15T11:03:49.560Z,18.95
2019-05-15T11:06:18.805Z,18.30
2019-05-15T11:08:50.895Z,20.29
2019-05-15T11:11:18.473Z,20.14
2019-05-15T16:22:51.377Z,17.39
2019-05-15T16:25:20.321Z,16.96
2019-05-15T16:27:48.976Z,16.64
2019-05-15T16:30:19.068Z,17.15
2019-05-15T16:32:47.868Z,17.03
2019-05-15T16:35:18.580Z,16.68
2019-05-15T16:37:49.236Z,16.99
2019-05-15T16:40:18.523Z,17.39
2019-05-15T16:42:48.827Z,17.03
2019-05-15T16:45:17.893Z,17.03
2019-05-15T16:47:48.030Z,16.62
2019-05-15T16:50:18.023Z,16.41
2019-05-15T16:52:49.104Z,15.85
2019-05-15T16:55:18.093Z,15.86
2019-05-15T16:57:47.983Z,15.40
2019-05-15T17:00:18.673Z,15.92
2019-05-15T17:02:48.340Z,16.07
2019-05-15T17:05:18.666Z,15.70
2019-05-15T17:07:48.814Z,15.36
2019-05-15T17:10:17.903Z,15.04
2019-05-15T17:12:49.043Z,15.05
2019-05-15T17:15:17.969Z,15.19
2019-05-15T17:17:48.727Z,15.31
2019-05-15T17:20:18.039Z,14.99
2019-05-15T17:22:48.422Z,15.22
2019-05-15T17:25:18.354Z,15.14
2019-05-15T17:27:47.548Z,15.21
2019-05-15T17:30:18.267Z,15.39
2019-05-15T17:32:49.224Z,15.66
2019-05-15T17:35:18.532Z,15.44
2019-05-15T17:37:48.741Z,15.75
2019-05-15T17:40:17.907Z,15.57
2019-05-15T17:42:49.124Z,15.42
2019-05-15T17:45:19.329Z,15.57
2019-05-15T17:47:49.099Z,15.35
2019-05-15T17:50:19.130Z,15.59
2019-05-15T17:52:49.193Z,15.58
2019-05-15T17:55:18.594Z,15.39
2019-05-15T17:57:54.602Z,15.17
2019-05-15T18:00:19.263Z,15.04
2019-05-15T18:02:48.632Z,14.95
2019-05-15T18:05:18.796Z,15.02
2019-05-15T18:07:48.851Z,15.03
2019-05-15T18:10:18.816Z,15.09
2019-05-15T18:12:48.812Z,14.95
2019-05-15T18:15:18.183Z,14.94
2019-05-15T18:17:48.091Z,14.80
2019-05-15T18:20:22.994Z,14.82
2019-05-15T18:22:51.573Z,14.78
2019-05-15T18:25:20.206Z,14.82
2019-05-15T18:27:48.836Z,14.61
2019-05-15T18:30:18.442Z,14.67
2019-05-15T18:32:48.871Z,14.53
2019-05-15T18:35:18.810Z,14.41
2019-05-15T18:37:48.309Z,14.37
2019-05-15T18:40:18.934Z,14.46
2019-05-15T18:42:49.517Z,14.65
2019-05-15T18:45:18.401Z,14.60
2019-05-15T18:47:48.086Z,14.42
2019-05-15T18:50:17.536Z,14.49
2019-05-15T18:52:48.665Z,14.02
2019-05-15T18:55:18.412Z,14.08
2019-05-15T18:57:48.642Z,13.83
2019-05-15T19:00:18.476Z,13.58
2019-05-15T19:02:47.118Z,13.48
2019-05-15T19:05:18.398Z,13.52
2019-05-15T19:07:48.558Z,13.36
2019-05-15T19:10:18.702Z,13.06
2019-05-15T19:12:48.451Z,13.11
2019-05-15T19:15:18.026Z,12.90
2019-05-15T19:17:47.842Z,12.97
2019-05-15T19:20:18.986Z,12.84
2019-05-15T19:22:48.360Z,12.67
2019-05-15T19:25:17.927Z,12.60
2019-05-15T19:27:46.733Z,12.53
2019-05-15T19:30:16.272Z,12.37
2019-05-15T19:32:44.830Z,12.30
2019-05-15T19:35:13.769Z,12.16
2019-05-15T19:37:42.396Z,11.98
2019-05-15T19:40:11.337Z,11.94
2019-05-15T19:42:39.979Z,11.85
2019-05-15T19:45:09.441Z,11.77
2019-05-15T19:47:38.900Z,11.59
2019-05-15T19:50:09.026Z,11.59
2019-05-15T19:52:37.795Z,11.48
2019-05-15T19:55:08.924Z,11.44
2019-05-15T19:57:39.027Z,11.44
2019-05-15T20:00:08.778Z,11.40
2019-05-15T20:02:38.162Z,11.28
2019-05-15T20:05:09.166Z,11.36
2019-05-15T20:07:38.885Z,11.11
2019-05-15T20:10:08.483Z,11.12
2019-05-15T20:12:38.809Z,11.01
2019-05-15T20:15:09.190Z,11.06
2019-05-15T20:17:38.759Z,10.99
2019-05-15T20:20:08.878Z,11.02
2019-05-15T20:22:40.345Z,10.86
2019-05-15T20:25:08.725Z,10.85
2019-05-15T20:27:39.118Z,10.87
2019-05-15T20:30:08.889Z,10.97
2019-05-15T20:32:38.670Z,10.98
2019-05-15T20:35:08.832Z,10.90
2019-05-15T20:37:38.949Z,10.95
2019-05-15T20:40:09.278Z,11.01
2019-05-15T20:42:38.573Z,11.05
2019-05-15T20:45:11.663Z,11.01
2019-05-15T20:47:38.997Z,11.00
2019-05-15T20:50:08.627Z,11.08
2019-05-15T20:52:39.513Z,11.02
2019-05-15T20:55:08.468Z,11.05
2019-05-15T20:57:40.024Z,11.39
2019-05-15T21:00:10.558Z,11.34
2019-05-15T21:02:39.150Z,11.61
2019-05-15T21:05:08.866Z,11.40
2019-05-15T21:07:39.948Z,11.39
2019-05-15T21:10:09.624Z,11.37
2019-05-15T21:12:41.096Z,11.26
2019-05-15T21:15:10.421Z,11.32
2019-05-15T21:17:40.443Z,11.25
2019-05-15T21:20:10.120Z,11.15
2019-05-15T21:22:40.225Z,11.07
2019-05-15T21:25:10.880Z,11.09
2019-05-15T21:27:42.352Z,11.06
2019-05-15T21:30:11.265Z,11.13
2019-05-15T21:32:39.825Z,11.00
2019-05-15T21:35:09.341Z,11.02
2019-05-15T21:37:39.232Z,11.02
2019-05-15T21:40:08.661Z,10.91
2019-05-15T21:42:39.125Z,11.03
2019-05-15T21:45:14.171Z,10.96
2019-05-15T21:47:38.945Z,10.69
2019-05-15T21:50:08.272Z,10.64
2019-05-15T21:52:39.108Z,10.49
2019-05-15T21:55:09.210Z,10.50
2019-05-15T21:57:40.433Z,10.38
2019-05-15T22:00:18.033Z,10.28
2019-05-15T22:02:49.156Z,10.21
2019-05-15T22:05:19.024Z,10.12
2019-05-15T22:07:50.883Z,9.95
2019-05-15T22:10:19.296Z,9.83
2019-05-15T22:12:48.630Z,9.82
2019-05-15T22:15:19.112Z,9.76
2019-05-15T22:17:49.418Z,9.76
2019-05-15T22:20:18.517Z,9.68
2019-05-15T22:22:50.343Z,9.71
2019-05-15T22:25:19.000Z,9.63
2019-05-15T22:27:48.624Z,9.57
2019-05-15T22:30:18.540Z,9.45
2019-05-15T22:32:49.607Z,9.38
2019-05-15T22:35:18.772Z,9.35
2019-05-15T22:37:49.340Z,9.29
2019-05-15T22:40:18.634Z,9.22
2019-05-15T22:42:48.589Z,9.12
2019-05-15T22:45:18.624Z,9.26
2019-05-15T22:47:48.258Z,9.17
2019-05-15T22:50:18.888Z,9.27
2019-05-15T22:52:49.344Z,9.28
2019-05-15T22:55:18.455Z,9.23
2019-05-15T22:57:48.076Z,9.24
2019-05-15T23:00:18.488Z,9.26
2019-05-15T23:02:48.788Z,9.24
2019-05-15T23:05:25.209Z,9.34
2019-05-15T23:07:48.414Z,9.47
2019-05-15T23:10:17.318Z,9.51
2019-05-15T23:12:46.062Z,9.56
2019-05-15T23:15:14.700Z,9.53
2019-05-15T23:17:43.422Z,9.51
2019-05-15T23:20:12.582Z,9.41
2019-05-15T23:22:41.097Z,9.40
2019-05-15T23:25:09.933Z,9.37
2019-05-15T23:27:38.495Z,9.54
2019-05-15T23:30:08.934Z,9.55
2019-05-15T23:32:39.178Z,9.47
2019-05-15T23:35:08.172Z,9.42
2019-05-15T23:37:39.134Z,9.45
2019-05-15T23:40:08.911Z,9.43
2019-05-15T23:42:39.063Z,9.48
2019-05-15T23:45:08.769Z,9.67
2019-05-15T23:47:38.326Z,9.66
2019-05-15T23:50:07.395Z,9.67
2019-05-15T23:52:38.270Z,9.64
2019-05-15T23:55:08.514Z,9.57
2019-05-15T23:57:39.254Z,9.80
